»·PEaware :: UAL736 KSAN-KSFO

UAL736 :: KSAN-KSFO

FLIGHT INFORMATION

Flight Status: Arrived
Operator:
United Airlines
More flights by this operator :: More flights under this callsign
Pilot: Jeff G. (394)
Aircraft: BOEING 757-200
(B752)
More flights by this aircraft type
Origin: KSAN San Diego Intl-Lindbergh
United States
Destination: KSFO San Francisco Intl
United States
More flights between these airports :: More routes between these airports
Route: +PADRZ2 IKAYE RIZIN SPLNT STOKD SERFR SERFR2
File this flight plan on PilotEdge
Remarks: PBN / A1B3B4B5C4D4O4 DOF / 171230 REG / N608DA EET / KZOA0038 OPR / UAL PER / D RMK / TCAS SIMBRIEF
Altitude:
(Current/Filed)
36,000ft
Speed:
(Current/Filed)
434kts
Departed: 29-Dec-17 05:05 PM
Arrived: 29-Dec-17 06:15 PM
Distance/Time
Traveled:
388nm/1:09
Distance/Time
To Go:
Arrived

Flight Plot

Page will automatically refresh every two minutes.

Flight plan parsing failed; only flown route is shown


Map Options




Map Legend


Flown Route
Filed Route
Departure Airport
Arrival Airport
Navaid (VOR, NDB)
Fix

Horizontal Profiles

Position Reports

Time Latitude Longitude Heading Altitude Ground
Speed
29-Dec-17 16:28 32.734613 -117.204596 135 29ft 0kts
29-Dec-17 16:29 32.734613 -117.204596 135 29ft 0kts
29-Dec-17 16:30 32.734613 -117.204596 135 29ft 0kts
29-Dec-17 16:31 32.734613 -117.204596 135 29ft 0kts
29-Dec-17 16:32 32.734613 -117.204596 135 29ft 0kts
29-Dec-17 16:33 32.734613 -117.204596 135 29ft 0kts
29-Dec-17 16:34 32.734613 -117.204596 135 29ft 0kts
29-Dec-17 16:35 32.734613 -117.204596 135 29ft 0kts
29-Dec-17 16:36 32.734613 -117.204596 135 29ft 0kts
29-Dec-17 16:37 32.734613 -117.204596 135 29ft 0kts
29-Dec-17 16:38 32.734613 -117.204596 135 29ft 0kts
29-Dec-17 16:39 32.734613 -117.204596 135 29ft 0kts
29-Dec-17 16:40 32.734613 -117.204596 135 29ft 0kts
29-Dec-17 16:41 32.734613 -117.204596 135 28ft 0kts
29-Dec-17 16:42 32.734613 -117.204596 135 28ft 0kts
29-Dec-17 16:43 32.734613 -117.204596 135 28ft 0kts
29-Dec-17 16:44 32.734613 -117.204596 135 28ft 0kts
29-Dec-17 16:45 32.734613 -117.204596 135 28ft 0kts
29-Dec-17 16:46 32.734613 -117.204596 135 28ft 0kts
29-Dec-17 16:47 32.734613 -117.204596 135 28ft 0kts
29-Dec-17 16:48 32.734613 -117.204596 135 28ft 0kts
29-Dec-17 16:49 32.734613 -117.204596 135 28ft 0kts
29-Dec-17 16:50 32.734834 -117.204854 135 28ft 2kts
29-Dec-17 16:51 32.735034 -117.205462 62 28ft 2kts
29-Dec-17 16:52 32.734518 -117.205694 2 28ft 1kts
29-Dec-17 16:53 32.734480 -117.205697 2 28ft 0kts
29-Dec-17 16:54 32.734480 -117.205697 2 28ft 0kts
29-Dec-17 16:55 32.734480 -117.205697 2 28ft 0kts
29-Dec-17 16:56 32.734480 -117.205697 2 28ft 0kts
29-Dec-17 16:57 32.734480 -117.205697 2 28ft 0kts
29-Dec-17 16:58 32.734852 -117.205416 48 28ft 5kts
29-Dec-17 16:59 32.735048 -117.205142 49 28ft 3kts
29-Dec-17 17:00 32.735789 -117.203204 104 28ft 6kts
29-Dec-17 17:01 32.735152 -117.200677 106 28ft 10kts
29-Dec-17 17:02 32.734168 -117.196538 105 28ft 12kts
29-Dec-17 17:03 32.733150 -117.192268 105 28ft 11kts
29-Dec-17 17:04 32.732287 -117.188794 106 28ft 15kts
29-Dec-17 17:05 32.730961 -117.183279 103 28ft 15kts
29-Dec-17 17:06 32.729946 -117.178964 106 28ft 10kts
29-Dec-17 17:07 32.729514 -117.177182 104 28ft 0kts
29-Dec-17 17:08 32.729514 -117.177182 104 28ft 0kts
29-Dec-17 17:09 32.729511 -117.176856 79 28ft 4kts
29-Dec-17 17:10 32.730276 -117.176242 294 28ft 0kts
29-Dec-17 17:11 32.738642 -117.209731 287 948ft 186kts
29-Dec-17 17:12 32.767763 -117.264013 297 1393ft 224kts
29-Dec-17 17:13 32.800868 -117.332513 308 4340ft 250kts
29-Dec-17 17:14 32.843392 -117.398647 308 7619ft 258kts
29-Dec-17 17:15 32.887899 -117.466528 311 10394ft 280kts
29-Dec-17 17:16 32.942415 -117.546872 307 12648ft 325kts
29-Dec-17 17:17 32.999501 -117.632000 307 15468ft 334kts
29-Dec-17 17:18 33.056546 -117.720464 307 18060ft 342kts
29-Dec-17 17:19 33.127783 -117.797179 316 20500ft 350kts
29-Dec-17 17:20 33.201808 -117.875042 311 22576ft 361kts
29-Dec-17 17:21 33.273061 -117.961122 312 24476ft 372kts
29-Dec-17 17:22 33.344116 -118.046147 311 26172ft 383kts
29-Dec-17 17:23 33.418647 -118.135440 311 27788ft 392kts
29-Dec-17 17:24 33.496239 -118.228303 312 29265ft 402kts
29-Dec-17 17:25 33.576322 -118.323533 311 30610ft 412kts
29-Dec-17 17:26 33.657991 -118.420620 310 32140ft 415kts
29-Dec-17 17:27 33.738950 -118.518559 309 33902ft 411kts
29-Dec-17 17:28 33.817984 -118.616452 309 35557ft 408kts
29-Dec-17 17:29 33.895913 -118.712443 309 36186ft 405kts
29-Dec-17 17:30 33.974904 -118.808802 310 36183ft 406kts
29-Dec-17 17:31 34.055080 -118.904365 309 36176ft 406kts
29-Dec-17 17:32 34.133013 -119.000822 304 36171ft 403kts
29-Dec-17 17:33 34.192891 -119.112511 297 36167ft 398kts
29-Dec-17 17:34 34.251347 -119.224315 298 36168ft 399kts
29-Dec-17 17:35 34.310069 -119.337530 297 36169ft 398kts
29-Dec-17 17:36 34.367617 -119.449850 297 36164ft 398kts
29-Dec-17 17:37 34.431931 -119.559075 309 36163ft 406kts
29-Dec-17 17:38 34.509435 -119.654942 309 36159ft 406kts
29-Dec-17 17:39 34.587008 -119.751842 308 36167ft 405kts
29-Dec-17 17:40 34.664951 -119.850173 308 36175ft 405kts
29-Dec-17 17:41 34.743699 -119.947764 309 36186ft 406kts
29-Dec-17 17:42 34.822595 -120.046141 309 36192ft 406kts
29-Dec-17 17:43 34.901487 -120.143415 309 36191ft 404kts
29-Dec-17 17:44 34.979709 -120.239753 308 36190ft 397kts
29-Dec-17 17:45 35.056227 -120.335127 307 36188ft 390kts
29-Dec-17 17:46 35.133157 -120.426421 310 36185ft 393kts
29-Dec-17 17:47 35.214004 -120.516248 310 36183ft 394kts
29-Dec-17 17:48 35.294676 -120.606624 310 36181ft 394kts
29-Dec-17 17:49 35.374736 -120.697619 309 36199ft 392kts
29-Dec-17 17:50 35.454037 -120.789103 309 36246ft 393kts
29-Dec-17 17:51 35.539878 -120.873409 316 36295ft 399kts
29-Dec-17 17:52 35.628605 -120.954462 315 36293ft 398kts
29-Dec-17 17:53 35.715995 -121.035567 314 35315ft 383kts
29-Dec-17 17:54 35.800839 -121.114835 314 33951ft 388kts
29-Dec-17 17:55 35.886419 -121.196141 314 32353ft 393kts
29-Dec-17 17:56 35.972957 -121.277585 314 32223ft 394kts
29-Dec-17 17:57 36.061177 -121.360699 315 29950ft 395kts
29-Dec-17 17:58 36.155060 -121.434550 322 26804ft 409kts
29-Dec-17 17:59 36.248387 -121.506488 322 24229ft 382kts
29-Dec-17 18:00 36.336509 -121.576291 321 22392ft 371kts
29-Dec-17 18:01 36.419094 -121.645550 322 20674ft 347kts
29-Dec-17 18:02 36.498928 -121.709131 322 19195ft 340kts
29-Dec-17 18:03 36.577751 -121.771514 323 17707ft 333kts
29-Dec-17 18:04 36.654753 -121.832536 323 16319ft 327kts
29-Dec-17 18:05 36.731248 -121.892209 332 15122ft 325kts
29-Dec-17 18:06 36.818979 -121.919325 343 13740ft 310kts
29-Dec-17 18:07 36.894896 -121.940239 346 12708ft 274kts
29-Dec-17 18:08 36.968579 -121.960310 339 11705ft 268kts
29-Dec-17 18:09 37.040617 -121.988452 341 10278ft 278kts
29-Dec-17 18:10 37.111800 -122.016244 342 9243ft 264kts
29-Dec-17 18:11 37.180463 -122.043118 342 8192ft 250kts
29-Dec-17 18:12 37.246242 -122.068921 342 6994ft 245kts
29-Dec-17 18:13 37.310685 -122.094244 342 6313ft 231kts
29-Dec-17 18:14 37.371121 -122.117983 342 5787ft 227kts
29-Dec-17 18:15 37.433209 -122.142398 342 4565ft 238kts
29-Dec-17 18:16 37.490095 -122.161659 347 3567ft 193kts
29-Dec-17 18:17 37.538996 -122.184760 300 2766ft 193kts
29-Dec-17 18:18 37.563762 -122.244364 298 1953ft 177kts
29-Dec-17 18:19 37.586118 -122.297429 298 1088ft 161kts
29-Dec-17 18:20 37.604935 -122.341050 295 383ft 139kts
29-Dec-17 18:21 37.619352 -122.376736 296 20ft 29kts
29-Dec-17 18:22 37.619787 -122.379028 232 20ft 0kts
29-Dec-17 18:23 37.619482 -122.379496 228 19ft 5kts
29-Dec-17 18:24 37.619343 -122.381252 295 20ft 5kts
29-Dec-17 18:25 37.620149 -122.383215 298 21ft 7kts
29-Dec-17 18:26 37.620029 -122.385294 186 21ft 5kts
29-Dec-17 18:27 37.619590 -122.385253 98 21ft 0kts
29-Dec-17 18:28 37.619493 -122.385004 116 22ft 0kts
29-Dec-17 18:29 37.619456 -122.384903 115 22ft 0kts
29-Dec-17 18:30 37.619456 -122.384904 115 22ft 0kts
29-Dec-17 18:31 37.619456 -122.384904 115 22ft 0kts

Navigation Log

Ident Type
Flight plan parsing failed, navigation log unavailable